sensor_id;sensor_type;location;lat;lon;timestamp;temperature;humidity
10581;DHT22;5338;51.500;6.802;2022-08-01T00:00:21;20.70;99.90
10581;DHT22;5338;51.500;6.802;2022-08-01T00:02:47;21.10;99.90
10581;DHT22;5338;51.500;6.802;2022-08-01T00:05:15;21.10;99.90
10581;DHT22;5338;51.500;6.802;2022-08-01T00:10:11;21.10;99.90
10581;DHT22;5338;51.500;6.802;2022-08-01T00:12:41;21.00;99.90
10581;DHT22;5338;51.500;6.802;2022-08-01T00:15:10;20.70;99.90
10581;DHT22;5338;51.500;6.802;2022-08-01T00:17:37;20.80;99.90
10581;DHT22;5338;51.500;6.802;2022-08-01T00:20:07;21.10;99.90
10581;DHT22;5338;51.500;6.802;2022-08-01T00:22:34;21.20;99.90
10581;DHT22;5338;51.500;6.802;2022-08-01T00:25:02;20.70;99.90
10581;DHT22;5338;51.500;6.802;2022-08-01T00:27:30;21.00;99.90
10581;DHT22;5338;51.500;6.802;2022-08-01T00:29:58;21.00;99.90
10581;DHT22;5338;51.500;6.802;2022-08-01T00:37:19;21.00;99.90
10581;DHT22;5338;51.500;6.802;2022-08-01T00:42:15;21.20;99.90
10581;DHT22;5338;51.500;6.802;2022-08-01T00:47:10;20.90;99.90
10581;DHT22;5338;51.500;6.802;2022-08-01T00:52:05;21.20;99.90
10581;DHT22;5338;51.500;6.802;2022-08-01T00:54:32;21.20;99.90
10581;DHT22;5338;51.500;6.802;2022-08-01T00:57:00;20.80;99.90
10581;DHT22;5338;51.500;6.802;2022-08-01T00:59:27;20.80;99.90
10581;DHT22;5338;51.500;6.802;2022-08-01T01:04:23;21.00;99.90
10581;DHT22;5338;51.500;6.802;2022-08-01T01:06:57;21.10;99.90
10581;DHT22;5338;51.500;6.802;2022-08-01T01:09:33;20.70;99.90
10581;DHT22;5338;51.500;6.802;2022-08-01T01:12:10;21.00;99.90
10581;DHT22;5338;51.500;6.802;2022-08-01T01:14:42;21.10;99.90
10581;DHT22;5338;51.500;6.802;2022-08-01T01:17:13;20.90;99.90
10581;DHT22;5338;51.500;6.802;2022-08-01T01:19:45;21.10;99.90
10581;DHT22;5338;51.500;6.802;2022-08-01T01:22:41;20.90;99.90
10581;DHT22;5338;51.500;6.802;2022-08-01T01:25:28;21.00;99.90
10581;DHT22;5338;51.500;6.802;2022-08-01T01:28:04;21.10;99.90
10581;DHT22;5338;51.500;6.802;2022-08-01T01:30:38;20.80;99.90
10581;DHT22;5338;51.500;6.802;2022-08-01T01:33:09;20.80;99.90
10581;DHT22;5338;51.500;6.802;2022-08-01T01:35:41;20.60;99.90
10581;DHT22;5338;51.500;6.802;2022-08-01T01:38:17;21.00;99.90
10581;DHT22;5338;51.500;6.802;2022-08-01T01:40:45;20.80;99.90
10581;DHT22;5338;51.500;6.802;2022-08-01T01:43:15;21.00;99.90
10581;DHT22;5338;51.500;6.802;2022-08-01T01:45:47;21.30;99.90
10581;DHT22;5338;51.500;6.802;2022-08-01T01:48:16;21.20;99.90
10581;DHT22;5338;51.500;6.802;2022-08-01T01:50:45;21.10;99.90
10581;DHT22;5338;51.500;6.802;2022-08-01T01:53:15;21.00;99.90
10581;DHT22;5338;51.500;6.802;2022-08-01T01:55:44;21.20;99.90
10581;DHT22;5338;51.500;6.802;2022-08-01T01:58:13;21.10;99.90
10581;DHT22;5338;51.500;6.802;2022-08-01T02:00:42;21.10;99.90
10581;DHT22;5338;51.500;6.802;2022-08-01T02:03:12;21.00;99.90
10581;DHT22;5338;51.500;6.802;2022-08-01T02:05:41;21.00;99.90
10581;DHT22;5338;51.500;6.802;2022-08-01T02:08:09;20.90;99.90
10581;DHT22;5338;51.500;6.802;2022-08-01T02:10:39;20.80;99.90
10581;DHT22;5338;51.500;6.802;2022-08-01T02:13:07;20.80;99.90
10581;DHT22;5338;51.500;6.802;2022-08-01T02:15:36;20.60;99.90
10581;DHT22;5338;51.500;6.802;2022-08-01T02:18:06;20.70;99.90
10581;DHT22;5338;51.500;6.802;2022-08-01T02:20:36;21.00;99.90
10581;DHT22;5338;51.500;6.802;2022-08-01T02:23:07;20.60;99.90
10581;DHT22;5338;51.500;6.802;2022-08-01T02:25:40;20.50;99.90
10581;DHT22;5338;51.500;6.802;2022-08-01T02:28:10;20.40;99.90
10581;DHT22;5338;51.500;6.802;2022-08-01T02:30:46;20.80;99.90
10581;DHT22;5338;51.500;6.802;2022-08-01T02:33:17;20.50;99.90
10581;DHT22;5338;51.500;6.802;2022-08-01T02:35:48;20.70;99.90
10581;DHT22;5338;51.500;6.802;2022-08-01T02:38:18;20.90;99.90
10581;DHT22;5338;51.500;6.802;2022-08-01T02:40:47;20.80;99.90
10581;DHT22;5338;51.500;6.802;2022-08-01T02:43:20;20.80;99.90
10581;DHT22;5338;51.500;6.802;2022-08-01T02:45:51;20.80;99.90
10581;DHT22;5338;51.500;6.802;2022-08-01T02:48:20;20.90;99.90
10581;DHT22;5338;51.500;6.802;2022-08-01T02:50:51;20.80;99.90
10581;DHT22;5338;51.500;6.802;2022-08-01T02:53:21;20.90;99.90
10581;DHT22;5338;51.500;6.802;2022-08-01T02:55:50;20.80;99.90
10581;DHT22;5338;51.500;6.802;2022-08-01T02:58:19;20.70;99.90
10581;DHT22;5338;51.500;6.802;2022-08-01T03:00:49;20.90;99.90
10581;DHT22;5338;51.500;6.802;2022-08-01T03:03:18;20.80;99.90
10581;DHT22;5338;51.500;6.802;2022-08-01T03:05:45;20.60;99.90
10581;DHT22;5338;51.500;6.802;2022-08-01T03:08:16;20.80;99.90
10581;DHT22;5338;51.500;6.802;2022-08-01T03:10:45;20.80;99.90
10581;DHT22;5338;51.500;6.802;2022-08-01T03:13:14;20.70;99.90
10581;DHT22;5338;51.500;6.802;2022-08-01T03:15:43;20.70;99.90
10581;DHT22;5338;51.500;6.802;2022-08-01T03:18:11;20.70;99.90
10581;DHT22;5338;51.500;6.802;2022-08-01T03:20:38;20.70;99.90
10581;DHT22;5338;51.500;6.802;2022-08-01T03:23:09;20.70;99.90
10581;DHT22;5338;51.500;6.802;2022-08-01T03:25:39;20.60;99.90
10581;DHT22;5338;51.500;6.802;2022-08-01T03:28:08;20.60;99.90
10581;DHT22;5338;51.500;6.802;2022-08-01T03:30:37;20.80;99.90
10581;DHT22;5338;51.500;6.802;2022-08-01T03:35:34;20.70;99.90
10581;DHT22;5338;51.500;6.802;2022-08-01T03:38:05;20.80;99.90
10581;DHT22;5338;51.500;6.802;2022-08-01T03:40:37;20.60;99.90
10581;DHT22;5338;51.500;6.802;2022-08-01T03:43:11;20.70;99.90
10581;DHT22;5338;51.500;6.802;2022-08-01T03:45:41;20.80;99.90
10581;DHT22;5338;51.500;6.802;2022-08-01T03:48:10;20.60;99.90
10581;DHT22;5338;51.500;6.802;2022-08-01T03:50:42;20.80;99.90
10581;DHT22;5338;51.500;6.802;2022-08-01T03:53:10;21.00;99.90
10581;DHT22;5338;51.500;6.802;2022-08-01T03:55:39;20.90;99.90
10581;DHT22;5338;51.500;6.802;2022-08-01T03:58:09;20.50;99.90
10581;DHT22;5338;51.500;6.802;2022-08-01T04:03:06;20.60;99.90
10581;DHT22;5338;51.500;6.802;2022-08-01T04:05:34;20.50;99.90
10581;DHT22;5338;51.500;6.802;2022-08-01T04:08:02;20.50;99.90
10581;DHT22;5338;51.500;6.802;2022-08-01T04:12:56;20.90;99.90
10581;DHT22;5338;51.500;6.802;2022-08-01T04:15:24;20.80;99.90
10581;DHT22;5338;51.500;6.802;2022-08-01T04:17:51;21.10;99.90
10581;DHT22;5338;51.500;6.802;2022-08-01T04:20:19;20.80;99.90
10581;DHT22;5338;51.500;6.802;2022-08-01T04:22:46;20.80;99.90
10581;DHT22;5338;51.500;6.802;2022-08-01T04:25:17;20.80;99.90
10581;DHT22;5338;51.500;6.802;2022-08-01T04:27:49;21.20;99.90
10581;DHT22;5338;51.500;6.802;2022-08-01T04:30:18;20.70;99.90
10581;DHT22;5338;51.500;6.802;2022-08-01T04:32:48;21.10;99.90
10581;DHT22;5338;51.500;6.802;2022-08-01T04:35:18;20.60;99.90
10581;DHT22;5338;51.500;6.802;2022-08-01T04:37:47;21.00;99.90
10581;DHT22;5338;51.500;6.802;2022-08-01T04:40:17;20.60;99.90
10581;DHT22;5338;51.500;6.802;2022-08-01T04:42:44;20.60;99.90
10581;DHT22;5338;51.500;6.802;2022-08-01T04:45:14;20.70;99.90
10581;DHT22;5338;51.500;6.802;2022-08-01T04:47:42;20.50;99.90
10581;DHT22;5338;51.500;6.802;2022-08-01T04:50:11;21.00;99.90
10581;DHT22;5338;51.500;6.802;2022-08-01T04:52:38;21.00;99.90
10581;DHT22;5338;51.500;6.802;2022-08-01T04:55:08;20.80;99.90
10581;DHT22;5338;51.500;6.802;2022-08-01T04:57:37;20.60;99.90
10581;DHT22;5338;51.500;6.802;2022-08-01T05:00:06;20.50;99.90
10581;DHT22;5338;51.500;6.802;2022-08-01T05:02:33;21.00;99.90
10581;DHT22;5338;51.500;6.802;2022-08-01T05:05:00;20.60;99.90
10581;DHT22;5338;51.500;6.802;2022-08-01T05:07:29;20.90;99.90
10581;DHT22;5338;51.500;6.802;2022-08-01T05:09:56;20.80;99.90
10581;DHT22;5338;51.500;6.802;2022-08-01T05:14:50;20.50;99.90
10581;DHT22;5338;51.500;6.802;2022-08-01T05:17:17;20.80;99.90
10581;DHT22;5338;51.500;6.802;2022-08-01T05:19:43;20.60;99.90
10581;DHT22;5338;51.500;6.802;2022-08-01T05:24:40;20.60;99.90
10581;DHT22;5338;51.500;6.802;2022-08-01T05:27:08;20.60;99.90
10581;DHT22;5338;51.500;6.802;2022-08-01T05:29:35;20.60;99.90
10581;DHT22;5338;51.500;6.802;2022-08-01T05:32:02;20.50;99.90
10581;DHT22;5338;51.500;6.802;2022-08-01T05:34:29;20.70;99.90
10581;DHT22;5338;51.500;6.802;2022-08-01T05:36:56;21.10;99.90
10581;DHT22;5338;51.500;6.802;2022-08-01T05:39:23;20.70;99.90
10581;DHT22;5338;51.500;6.802;2022-08-01T05:41:51;20.90;99.90
10581;DHT22;5338;51.500;6.802;2022-08-01T05:44:18;20.50;99.90
10581;DHT22;5338;51.500;6.802;2022-08-01T05:49:12;20.60;99.90
10581;DHT22;5338;51.500;6.802;2022-08-01T05:51:39;17.90;99.90
10581;DHT22;5338;51.500;6.802;2022-08-01T05:56:34;20.60;99.90
10581;DHT22;5338;51.500;6.802;2022-08-01T05:59:02;20.50;99.90
10581;DHT22;5338;51.500;6.802;2022-08-01T06:03:56;20.60;99.90
10581;DHT22;5338;51.500;6.802;2022-08-01T06:06:23;20.70;99.90
10581;DHT22;5338;51.500;6.802;2022-08-01T06:08:50;21.10;99.90
10581;DHT22;5338;51.500;6.802;2022-08-01T06:11:17;20.80;99.90
10581;DHT22;5338;51.500;6.802;2022-08-01T06:16:12;20.80;99.90
10581;DHT22;5338;51.500;6.802;2022-08-01T06:21:07;21.20;99.90
10581;DHT22;5338;51.500;6.802;2022-08-01T06:26:01;20.90;99.90
10581;DHT22;5338;51.500;6.802;2022-08-01T06:28:28;21.00;99.90
10581;DHT22;5338;51.500;6.802;2022-08-01T06:33:25;21.50;99.90
10581;DHT22;5338;51.500;6.802;2022-08-01T06:35:52;21.00;99.90
10581;DHT22;5338;51.500;6.802;2022-08-01T06:38:19;21.70;99.90
10581;DHT22;5338;51.500;6.802;2022-08-01T06:40:46;21.80;99.90
10581;DHT22;5338;51.500;6.802;2022-08-01T06:43:13;22.20;99.90
10581;DHT22;5338;51.500;6.802;2022-08-01T06:45:41;22.60;99.90
10581;DHT22;5338;51.500;6.802;2022-08-01T06:48:07;22.30;99.90
10581;DHT22;5338;51.500;6.802;2022-08-01T06:50:36;22.40;99.90
10581;DHT22;5338;51.500;6.802;2022-08-01T06:53:03;22.40;99.90
10581;DHT22;5338;51.500;6.802;2022-08-01T06:55:30;22.20;99.90
10581;DHT22;5338;51.500;6.802;2022-08-01T06:57:57;22.70;99.90
10581;DHT22;5338;51.500;6.802;2022-08-01T07:00:25;23.10;99.90
10581;DHT22;5338;51.500;6.802;2022-08-01T07:02:54;23.10;99.90
10581;DHT22;5338;51.500;6.802;2022-08-01T07:05:21;23.00;99.90
10581;DHT22;5338;51.500;6.802;2022-08-01T07:07:50;23.50;99.90
10581;DHT22;5338;51.500;6.802;2022-08-01T07:10:17;23.40;99.90
10581;DHT22;5338;51.500;6.802;2022-08-01T07:12:44;23.20;99.90
10581;DHT22;5338;51.500;6.802;2022-08-01T07:15:11;22.70;99.90
10581;DHT22;5338;51.500;6.802;2022-08-01T07:17:39;22.70;99.90
10581;DHT22;5338;51.500;6.802;2022-08-01T07:20:07;22.20;99.90
10581;DHT22;5338;51.500;6.802;2022-08-01T07:22:34;22.20;99.90
10581;DHT22;5338;51.500;6.802;2022-08-01T07:25:03;22.80;99.90
10581;DHT22;5338;51.500;6.802;2022-08-01T07:27:31;22.70;99.90
10581;DHT22;5338;51.500;6.802;2022-08-01T07:29:58;23.40;99.90
10581;DHT22;5338;51.500;6.802;2022-08-01T07:32:25;23.60;99.90
10581;DHT22;5338;51.500;6.802;2022-08-01T07:34:52;23.40;99.90
10581;DHT22;5338;51.500;6.802;2022-08-01T07:37:18;23.50;99.90
10581;DHT22;5338;51.500;6.802;2022-08-01T07:42:14;23.20;99.90
10581;DHT22;5338;51.500;6.802;2022-08-01T07:44:42;24.00;99.90
10581;DHT22;5338;51.500;6.802;2022-08-01T07:47:09;23.30;99.90
10581;DHT22;5338;51.500;6.802;2022-08-01T07:49:36;23.30;99.90
10581;DHT22;5338;51.500;6.802;2022-08-01T07:52:03;22.90;99.90
10581;DHT22;5338;51.500;6.802;2022-08-01T07:54:30;22.60;99.90
10581;DHT22;5338;51.500;6.802;2022-08-01T07:56:57;22.50;99.90
10581;DHT22;5338;51.500;6.802;2022-08-01T07:59:25;22.70;99.90
10581;DHT22;5338;51.500;6.802;2022-08-01T08:01:53;22.90;99.90
10581;DHT22;5338;51.500;6.802;2022-08-01T08:04:20;22.70;99.90
10581;DHT22;5338;51.500;6.802;2022-08-01T08:06:46;23.00;99.90
10581;DHT22;5338;51.500;6.802;2022-08-01T08:09:14;23.60;99.90
10581;DHT22;5338;51.500;6.802;2022-08-01T08:11:42;23.70;99.90
10581;DHT22;5338;51.500;6.802;2022-08-01T08:14:09;23.00;99.90
10581;DHT22;5338;51.500;6.802;2022-08-01T08:16:38;23.20;99.90
10581;DHT22;5338;51.500;6.802;2022-08-01T08:19:05;23.50;99.90
10581;DHT22;5338;51.500;6.802;2022-08-01T08:21:31;23.10;99.90
10581;DHT22;5338;51.500;6.802;2022-08-01T08:23:58;23.70;99.90
10581;DHT22;5338;51.500;6.802;2022-08-01T08:26:42;24.10;99.90
10581;DHT22;5338;51.500;6.802;2022-08-01T08:29:09;23.50;99.90
10581;DHT22;5338;51.500;6.802;2022-08-01T08:31:38;24.10;99.90
10581;DHT22;5338;51.500;6.802;2022-08-01T08:34:04;24.30;99.90
10581;DHT22;5338;51.500;6.802;2022-08-01T08:36:31;24.90;99.90
10581;DHT22;5338;51.500;6.802;2022-08-01T08:38:59;25.00;99.90
10581;DHT22;5338;51.500;6.802;2022-08-01T08:41:28;25.00;99.90
10581;DHT22;5338;51.500;6.802;2022-08-01T08:43:55;24.50;99.90
10581;DHT22;5338;51.500;6.802;2022-08-01T08:46:25;24.40;99.90
10581;DHT22;5338;51.500;6.802;2022-08-01T08:48:55;23.90;99.90
10581;DHT22;5338;51.500;6.802;2022-08-01T08:51:23;23.70;99.90
10581;DHT22;5338;51.500;6.802;2022-08-01T08:53:54;24.10;99.90
10581;DHT22;5338;51.500;6.802;2022-08-01T08:56:24;24.20;99.90
10581;DHT22;5338;51.500;6.802;2022-08-01T08:58:51;25.10;99.90
10581;DHT22;5338;51.500;6.802;2022-08-01T09:01:19;25.60;99.90
10581;DHT22;5338;51.500;6.802;2022-08-01T09:03:46;25.60;99.90
10581;DHT22;5338;51.500;6.802;2022-08-01T09:06:15;24.90;99.90
10581;DHT22;5338;51.500;6.802;2022-08-01T09:08:42;24.50;99.90
10581;DHT22;5338;51.500;6.802;2022-08-01T09:11:09;24.80;99.90
10581;DHT22;5338;51.500;6.802;2022-08-01T09:13:35;25.40;99.90
10581;DHT22;5338;51.500;6.802;2022-08-01T09:16:05;25.80;99.90
10581;DHT22;5338;51.500;6.802;2022-08-01T09:18:33;24.80;99.90
10581;DHT22;5338;51.500;6.802;2022-08-01T09:21:16;25.10;99.90
10581;DHT22;5338;51.500;6.802;2022-08-01T09:23:45;24.70;99.90
10581;DHT22;5338;51.500;6.802;2022-08-01T09:26:14;24.80;99.90
10581;DHT22;5338;51.500;6.802;2022-08-01T09:28:42;24.70;99.90
10581;DHT22;5338;51.500;6.802;2022-08-01T09:31:11;24.80;99.90
10581;DHT22;5338;51.500;6.802;2022-08-01T09:33:52;24.30;99.90
10581;DHT22;5338;51.500;6.802;2022-08-01T09:36:22;25.40;99.90
10581;DHT22;5338;51.500;6.802;2022-08-01T09:38:49;25.30;99.90
10581;DHT22;5338;51.500;6.802;2022-08-01T09:41:17;25.30;99.90
10581;DHT22;5338;51.500;6.802;2022-08-01T09:43:48;25.60;99.90
10581;DHT22;5338;51.500;6.802;2022-08-01T09:46:16;25.50;99.90
10581;DHT22;5338;51.500;6.802;2022-08-01T09:48:55;25.60;99.90
10581;DHT22;5338;51.500;6.802;2022-08-01T09:51:32;25.40;99.90
10581;DHT22;5338;51.500;6.802;2022-08-01T09:53:59;25.00;99.90
10581;DHT22;5338;51.500;6.802;2022-08-01T09:56:26;24.70;99.90
10581;DHT22;5338;51.500;6.802;2022-08-01T09:59:01;24.10;99.90
10581;DHT22;5338;51.500;6.802;2022-08-01T10:01:37;24.30;99.90
10581;DHT22;5338;51.500;6.802;2022-08-01T10:04:09;23.90;99.90
10581;DHT22;5338;51.500;6.802;2022-08-01T10:06:38;24.00;99.90
10581;DHT22;5338;51.500;6.802;2022-08-01T10:09:05;24.80;99.90
10581;DHT22;5338;51.500;6.802;2022-08-01T10:11:33;24.70;99.90
10581;DHT22;5338;51.500;6.802;2022-08-01T10:14:02;25.20;99.90
10581;DHT22;5338;51.500;6.802;2022-08-01T10:16:30;25.40;99.90
10581;DHT22;5338;51.500;6.802;2022-08-01T10:18:59;25.10;99.90
10581;DHT22;5338;51.500;6.802;2022-08-01T10:21:27;25.50;99.90
10581;DHT22;5338;51.500;6.802;2022-08-01T10:23:56;25.30;99.90
10581;DHT22;5338;51.500;6.802;2022-08-01T10:26:26;25.50;99.90
10581;DHT22;5338;51.500;6.802;2022-08-01T10:28:53;25.60;99.90
10581;DHT22;5338;51.500;6.802;2022-08-01T10:31:21;25.20;99.90
10581;DHT22;5338;51.500;6.802;2022-08-01T10:33:49;24.80;99.90
10581;DHT22;5338;51.500;6.802;2022-08-01T10:36:17;24.90;99.90
10581;DHT22;5338;51.500;6.802;2022-08-01T10:38:46;24.80;99.90
10581;DHT22;5338;51.500;6.802;2022-08-01T10:41:14;24.70;99.90
10581;DHT22;5338;51.500;6.802;2022-08-01T10:43:42;24.10;99.90
10581;DHT22;5338;51.500;6.802;2022-08-01T10:46:09;24.40;99.90
10581;DHT22;5338;51.500;6.802;2022-08-01T10:48:42;23.80;99.90
10581;DHT22;5338;51.500;6.802;2022-08-01T10:51:12;24.20;99.90
10581;DHT22;5338;51.500;6.802;2022-08-01T10:53:46;24.30;99.90
10581;DHT22;5338;51.500;6.802;2022-08-01T10:56:14;23.90;99.90
10581;DHT22;5338;51.500;6.802;2022-08-01T10:58:43;23.70;99.90
10581;DHT22;5338;51.500;6.802;2022-08-01T11:01:22;24.00;99.90
10581;DHT22;5338;51.500;6.802;2022-08-01T11:04:04;23.90;99.90
10581;DHT22;5338;51.500;6.802;2022-08-01T11:06:43;24.30;99.90
10581;DHT22;5338;51.500;6.802;2022-08-01T11:09:23;24.40;99.90
10581;DHT22;5338;51.500;6.802;2022-08-01T11:12:00;24.00;99.90
10581;DHT22;5338;51.500;6.802;2022-08-01T11:14:29;24.50;99.90
10581;DHT22;5338;51.500;6.802;2022-08-01T11:16:56;24.40;99.90
10581;DHT22;5338;51.500;6.802;2022-08-01T11:20:07;24.20;99.90
10581;DHT22;5338;51.500;6.802;2022-08-01T11:26:06;24.80;99.90
10581;DHT22;5338;51.500;6.802;2022-08-01T11:28:35;25.00;99.90
10581;DHT22;5338;51.500;6.802;2022-08-01T11:31:32;24.10;99.90
10581;DHT22;5338;51.500;6.802;2022-08-01T11:34:00;24.50;99.90
10581;DHT22;5338;51.500;6.802;2022-08-01T11:36:27;24.30;99.90
10581;DHT22;5338;51.500;6.802;2022-08-01T11:39:14;25.00;99.90
10581;DHT22;5338;51.500;6.802;2022-08-01T11:41:42;24.90;99.90
10581;DHT22;5338;51.500;6.802;2022-08-01T11:44:13;24.80;99.90
10581;DHT22;5338;51.500;6.802;2022-08-01T11:46:57;24.90;99.90
10581;DHT22;5338;51.500;6.802;2022-08-01T11:49:37;25.20;99.90
10581;DHT22;5338;51.500;6.802;2022-08-01T11:52:12;24.90;99.90
10581;DHT22;5338;51.500;6.802;2022-08-01T11:54:41;25.00;99.90
10581;DHT22;5338;51.500;6.802;2022-08-01T11:57:10;25.20;99.90
10581;DHT22;5338;51.500;6.802;2022-08-01T11:59:41;25.90;99.90
10581;DHT22;5338;51.500;6.802;2022-08-01T12:02:29;25.90;99.90
10581;DHT22;5338;51.500;6.802;2022-08-01T12:04:58;25.50;99.90
10581;DHT22;5338;51.500;6.802;2022-08-01T12:07:27;25.90;99.90
10581;DHT22;5338;51.500;6.802;2022-08-01T12:09:59;25.50;99.90
10581;DHT22;5338;51.500;6.802;2022-08-01T12:12:28;25.40;99.90
10581;DHT22;5338;51.500;6.802;2022-08-01T12:14:58;25.50;99.90
10581;DHT22;5338;51.500;6.802;2022-08-01T12:17:31;24.80;99.90
10581;DHT22;5338;51.500;6.802;2022-08-01T12:19:58;25.30;99.90
10581;DHT22;5338;51.500;6.802;2022-08-01T12:22:25;24.70;99.90
10581;DHT22;5338;51.500;6.802;2022-08-01T12:24:52;24.60;99.90
10581;DHT22;5338;51.500;6.802;2022-08-01T12:27:27;25.30;99.90
10581;DHT22;5338;51.500;6.802;2022-08-01T12:29:57;25.00;99.90
10581;DHT22;5338;51.500;6.802;2022-08-01T12:32:27;25.10;99.90
10581;DHT22;5338;51.500;6.802;2022-08-01T12:34:58;26.00;99.90
10581;DHT22;5338;51.500;6.802;2022-08-01T12:37:27;25.60;99.90
10581;DHT22;5338;51.500;6.802;2022-08-01T12:39:54;25.80;99.90
10581;DHT22;5338;51.500;6.802;2022-08-01T12:44:50;26.20;99.90
10581;DHT22;5338;51.500;6.802;2022-08-01T12:47:19;26.20;99.90
10581;DHT22;5338;51.500;6.802;2022-08-01T12:49:47;26.30;99.90
10581;DHT22;5338;51.500;6.802;2022-08-01T12:52:14;26.60;99.90
10581;DHT22;5338;51.500;6.802;2022-08-01T12:55:01;25.70;99.90
10581;DHT22;5338;51.500;6.802;2022-08-01T12:57:28;25.70;99.90
10581;DHT22;5338;51.500;6.802;2022-08-01T13:00:06;25.40;99.90
10581;DHT22;5338;51.500;6.802;2022-08-01T13:02:35;25.10;99.90
10581;DHT22;5338;51.500;6.802;2022-08-01T13:05:03;25.60;99.90
10581;DHT22;5338;51.500;6.802;2022-08-01T13:07:43;25.20;99.90
10581;DHT22;5338;51.500;6.802;2022-08-01T13:10:11;25.60;99.90
10581;DHT22;5338;51.500;6.802;2022-08-01T13:12:39;25.70;99.90
10581;DHT22;5338;51.500;6.802;2022-08-01T13:15:23;25.60;99.90
10581;DHT22;5338;51.500;6.802;2022-08-01T13:17:53;25.60;99.90
10581;DHT22;5338;51.500;6.802;2022-08-01T13:20:32;25.20;99.90
10581;DHT22;5338;51.500;6.802;2022-08-01T13:23:13;24.70;99.90
10581;DHT22;5338;51.500;6.802;2022-08-01T13:25:47;24.80;99.90
10581;DHT22;5338;51.500;6.802;2022-08-01T13:28:16;24.70;99.90
10581;DHT22;5338;51.500;6.802;2022-08-01T13:30:52;24.70;99.90
10581;DHT22;5338;51.500;6.802;2022-08-01T13:33:28;25.00;99.90
10581;DHT22;5338;51.500;6.802;2022-08-01T13:36:06;25.10;99.90
10581;DHT22;5338;51.500;6.802;2022-08-01T13:38:34;25.50;99.90
10581;DHT22;5338;51.500;6.802;2022-08-01T13:41:18;25.80;99.90
10581;DHT22;5338;51.500;6.802;2022-08-01T13:43:46;25.00;99.90
10581;DHT22;5338;51.500;6.802;2022-08-01T13:46:13;25.70;99.90
10581;DHT22;5338;51.500;6.802;2022-08-01T13:48:41;25.10;99.90
10581;DHT22;5338;51.500;6.802;2022-08-01T13:51:11;25.20;99.90
10581;DHT22;5338;51.500;6.802;2022-08-01T13:53:38;25.40;99.90
10581;DHT22;5338;51.500;6.802;2022-08-01T13:56:06;25.30;99.90
10581;DHT22;5338;51.500;6.802;2022-08-01T13:58:33;25.10;99.90
10581;DHT22;5338;51.500;6.802;2022-08-01T14:01:00;25.00;99.90
10581;DHT22;5338;51.500;6.802;2022-08-01T14:03:27;24.90;99.90
10581;DHT22;5338;51.500;6.802;2022-08-01T14:05:56;24.60;99.90
10581;DHT22;5338;51.500;6.802;2022-08-01T14:08:23;24.70;99.90
10581;DHT22;5338;51.500;6.802;2022-08-01T14:10:50;24.40;99.90
10581;DHT22;5338;51.500;6.802;2022-08-01T14:13:21;24.60;99.90
10581;DHT22;5338;51.500;6.802;2022-08-01T14:15:48;24.50;99.90
10581;DHT22;5338;51.500;6.802;2022-08-01T14:18:15;25.10;99.90
10581;DHT22;5338;51.500;6.802;2022-08-01T14:20:43;24.70;99.90
10581;DHT22;5338;51.500;6.802;2022-08-01T14:23:11;24.40;99.90
10581;DHT22;5338;51.500;6.802;2022-08-01T14:25:39;24.60;99.90
10581;DHT22;5338;51.500;6.802;2022-08-01T14:30:34;24.40;99.90
10581;DHT22;5338;51.500;6.802;2022-08-01T14:35:28;24.00;99.90
10581;DHT22;5338;51.500;6.802;2022-08-01T14:37:54;24.00;99.90
10581;DHT22;5338;51.500;6.802;2022-08-01T14:40:23;24.40;99.90
10581;DHT22;5338;51.500;6.802;2022-08-01T14:42:50;24.20;99.90
10581;DHT22;5338;51.500;6.802;2022-08-01T14:45:17;24.60;99.90
10581;DHT22;5338;51.500;6.802;2022-08-01T14:47:44;24.80;99.90
10581;DHT22;5338;51.500;6.802;2022-08-01T14:50:13;24.60;99.90
10581;DHT22;5338;51.500;6.802;2022-08-01T14:52:41;24.60;99.90
10581;DHT22;5338;51.500;6.802;2022-08-01T14:55:10;24.60;99.90
10581;DHT22;5338;51.500;6.802;2022-08-01T14:57:40;24.60;99.90
10581;DHT22;5338;51.500;6.802;2022-08-01T15:00:08;24.70;99.90
10581;DHT22;5338;51.500;6.802;2022-08-01T15:02:36;24.50;99.90
10581;DHT22;5338;51.500;6.802;2022-08-01T15:05:04;24.10;99.90
10581;DHT22;5338;51.500;6.802;2022-08-01T15:07:31;24.20;99.90
10581;DHT22;5338;51.500;6.802;2022-08-01T15:09:59;24.40;99.90
10581;DHT22;5338;51.500;6.802;2022-08-01T15:12:26;24.50;99.90
10581;DHT22;5338;51.500;6.802;2022-08-01T15:14:54;24.00;99.90
10581;DHT22;5338;51.500;6.802;2022-08-01T15:17:24;24.10;99.90
10581;DHT22;5338;51.500;6.802;2022-08-01T15:19:53;24.30;99.90
10581;DHT22;5338;51.500;6.802;2022-08-01T15:22:21;24.30;99.90
10581;DHT22;5338;51.500;6.802;2022-08-01T15:24:49;24.40;99.90
10581;DHT22;5338;51.500;6.802;2022-08-01T15:27:17;24.00;99.90
10581;DHT22;5338;51.500;6.802;2022-08-01T15:29:44;24.40;99.90
10581;DHT22;5338;51.500;6.802;2022-08-01T15:32:13;24.40;99.90
10581;DHT22;5338;51.500;6.802;2022-08-01T15:34:41;24.40;99.90
10581;DHT22;5338;51.500;6.802;2022-08-01T15:37:09;24.60;99.90
10581;DHT22;5338;51.500;6.802;2022-08-01T15:39:37;24.80;99.90
10581;DHT22;5338;51.500;6.802;2022-08-01T15:42:06;24.60;99.90
10581;DHT22;5338;51.500;6.802;2022-08-01T15:44:34;24.50;99.90
10581;DHT22;5338;51.500;6.802;2022-08-01T15:47:02;24.60;99.90
10581;DHT22;5338;51.500;6.802;2022-08-01T15:49:31;24.20;99.90
10581;DHT22;5338;51.500;6.802;2022-08-01T15:52:01;24.10;99.90
10581;DHT22;5338;51.500;6.802;2022-08-01T15:54:28;23.80;99.90
10581;DHT22;5338;51.500;6.802;2022-08-01T15:56:55;23.60;99.90
10581;DHT22;5338;51.500;6.802;2022-08-01T15:59:22;24.40;99.90
10581;DHT22;5338;51.500;6.802;2022-08-01T16:04:17;24.40;99.90
10581;DHT22;5338;51.500;6.802;2022-08-01T16:06:47;24.10;99.90
10581;DHT22;5338;51.500;6.802;2022-08-01T16:09:14;23.90;99.90
10581;DHT22;5338;51.500;6.802;2022-08-01T16:11:41;24.40;99.90
10581;DHT22;5338;51.500;6.802;2022-08-01T16:14:08;24.30;99.90
10581;DHT22;5338;51.500;6.802;2022-08-01T16:16:35;23.70;99.90
10581;DHT22;5338;51.500;6.802;2022-08-01T16:19:02;24.30;99.90
10581;DHT22;5338;51.500;6.802;2022-08-01T16:21:30;24.00;99.90
10581;DHT22;5338;51.500;6.802;2022-08-01T16:23:58;24.40;99.90
10581;DHT22;5338;51.500;6.802;2022-08-01T16:26:25;23.90;99.90
10581;DHT22;5338;51.500;6.802;2022-08-01T16:28:52;24.00;99.90
10581;DHT22;5338;51.500;6.802;2022-08-01T16:31:19;23.90;99.90
10581;DHT22;5338;51.500;6.802;2022-08-01T16:33:46;23.90;99.90
10581;DHT22;5338;51.500;6.802;2022-08-01T16:36:14;24.10;99.90
10581;DHT22;5338;51.500;6.802;2022-08-01T16:38:41;24.20;99.90
10581;DHT22;5338;51.500;6.802;2022-08-01T16:41:09;24.10;99.90
10581;DHT22;5338;51.500;6.802;2022-08-01T16:43:36;24.20;99.90
10581;DHT22;5338;51.500;6.802;2022-08-01T16:46:03;24.30;99.90
10581;DHT22;5338;51.500;6.802;2022-08-01T16:48:30;24.50;99.90
10581;DHT22;5338;51.500;6.802;2022-08-01T16:50:58;23.80;99.90
10581;DHT22;5338;51.500;6.802;2022-08-01T16:53:25;23.60;99.90
10581;DHT22;5338;51.500;6.802;2022-08-01T16:55:52;23.60;99.90
10581;DHT22;5338;51.500;6.802;2022-08-01T16:58:21;24.30;99.90
10581;DHT22;5338;51.500;6.802;2022-08-01T17:00:48;24.00;99.90